Daloli — SVA7331 — position and weather

sailwx.info

Track history (hours):
 
Tides and Currents Weather Stations Pressure Air Temp Water Temp Dewpoint Dewpoint Depression Visibility Wind Speed Wind Dir Waves Ship Positions

Daloli

Last reported at 2017-Sep-24 17:30 UTC. Time now 2017-Sep-24 17:41 UTC.
Position N 37°55' E 023°42'.

Type: Pleasure craft. MMSI: 239982500.

Date/timePositionNaut miles runAvg speedWind from/ knotsBaromVisibWave heightAir tempDewpointWater temp
2017-Sep-24 17:30N 37°55' E 023°42'0 0.0
2017-Sep-24 17:00N 37°55' E 023°42'0 0.0
2017-Sep-24 16:30N 37°55' E 023°42'0 0.0
2017-Sep-24 16:00N 37°55' E 023°42'0 0.0
2017-Sep-24 15:30N 37°55' E 023°42'0 0.0
2017-Sep-24 15:00N 37°55' E 023°42'0 0.0
2017-Sep-24 14:30N 37°55' E 023°42'0 0.0
2017-Sep-24 14:00N 37°55' E 023°42'0 0.0
2017-Sep-24 13:30N 37°55' E 023°42'0 0.0
2017-Sep-24 13:00N 37°55' E 023°42'0 0.0
2017-Sep-24 12:30N 37°55' E 023°42'0 0.0
2017-Sep-24 12:00N 37°55' E 023°42'0 0.0
2017-Sep-24 11:30N 37°55' E 023°42'0 0.0
2017-Sep-24 11:00N 37°55' E 023°42'0 0.0
2017-Sep-24 10:30N 37°55' E 023°42'0 0.0
2017-Sep-24 10:00N 37°55' E 023°42'0 0.0
2017-Sep-24 09:30N 37°55' E 023°42'0 0.0
2017-Sep-24 09:00N 37°55' E 023°42'0 0.0
2017-Sep-24 08:30N 37°55' E 023°42'0 0.0
2017-Sep-24 08:00N 37°55' E 023°42'0 0.0
2017-Sep-24 07:30N 37°55' E 023°42'0 0.0
2017-Sep-24 07:00N 37°55' E 023°42'0 0.0
2017-Sep-24 06:30N 37°55' E 023°42'0 0.0
2017-Sep-24 06:00N 37°55' E 023°42'0 0.0
2017-Sep-24 05:30N 37°55' E 023°42'0 0.0
2017-Sep-24 05:00N 37°55' E 023°42'0 0.0
2017-Sep-24 04:30N 37°55' E 023°42'0 0.0
2017-Sep-24 04:00N 37°55' E 023°42'0 0.0
2017-Sep-24 03:30N 37°55' E 023°42'0 0.0
2017-Sep-24 03:00N 37°55' E 023°42'0 0.0
2017-Sep-24 02:30N 37°55' E 023°42'0 0.0
2017-Sep-24 02:00N 37°55' E 023°42'0 0.0
2017-Sep-24 01:30N 37°55' E 023°42'0 0.0
2017-Sep-24 01:00N 37°55' E 023°42'0 0.0
2017-Sep-24 00:30N 37°55' E 023°42'0 0.0
2017-Sep-24 00:00N 37°55' E 023°42'0 0.0
2017-Sep-23 23:30N 37°55' E 023°42'0 0.0
2017-Sep-23 23:00N 37°55' E 023°42'0 0.0
2017-Sep-23 22:30N 37°55' E 023°42'0 0.0
2017-Sep-23 22:00N 37°55' E 023°42'0 0.0
2017-Sep-23 21:30N 37°55' E 023°42'0 0.0
2017-Sep-23 21:00N 37°55' E 023°42'0 0.0
2017-Sep-23 20:30N 37°55' E 023°42'0 0.0
2017-Sep-23 20:00N 37°55' E 023°42'30 0.6
2017-Sep-21 16:15N 37°38' E 023°10'0 0.0
2017-Sep-21 15:52N 37°38' E 023°10'0 0.0
2017-Sep-21 15:30N 37°38' E 023°10'0 0.0
2017-Sep-21 15:00N 37°38' E 023°10'0 0.0
2017-Sep-21 14:28N 37°38' E 023°10'0 0.0
2017-Sep-21 10:24N 37°38' E 023°10'1 2.5
2017-Sep-21 10:00N 37°38' E 023°11'18 1.0
2017-Sep-20 15:33N 37°32' E 023°32'122.7
2017-Sep-20 15:30N 37°31' E 023°33'918.6
2017-Sep-20 15:00N 37°23' E 023°26'7 0.2
2017-Sep-19 07:27N 37°27' E 023°33'8 0.2
2017-Sep-17 10:47N 37°31' E 023°25'721.6
2017-Sep-17 10:26N 37°35' E 023°33'1023.4
2017-Sep-17 10:00N 37°36' E 023°46'8 0.4
2017-Sep-16 14:18N 37°42' E 023°53'722.8
2017-Sep-16 14:01N 37°45' E 023°45'1020.1
2017-Sep-16 13:30N 37°55' E 023°42'0 0.6
2017-Sep-16 13:01N 37°55' E 023°42'0 0.0
2017-Sep-16 12:31N 37°55' E 023°42'0 0.0
2017-Sep-16 12:01N 37°55' E 023°42'0 0.0
2017-Sep-16 11:30N 37°55' E 023°42'0 0.0
2017-Sep-16 11:01N 37°55' E 023°42'0 0.0
2017-Sep-16 10:30N 37°55' E 023°42'0 0.0
2017-Sep-16 10:00N 37°55' E 023°42'0 0.0
2017-Sep-16 09:31N 37°55' E 023°42'0 0.0
2017-Sep-16 09:00N 37°55' E 023°42'0 0.0
2017-Sep-16 08:31N 37°55' E 023°42'0 0.0
2017-Sep-16 08:01N 37°55' E 023°42'0 0.0
2017-Sep-16 07:30N 37°55' E 023°42'0 0.0
2017-Sep-16 07:00N 37°55' E 023°42'0 0.0
2017-Sep-16 06:31N 37°55' E 023°42'0 0.0
2017-Sep-16 06:01N 37°55' E 023°42'0 0.0
2017-Sep-16 05:30N 37°55' E 023°42'0 0.0
2017-Sep-16 05:01N 37°55' E 023°42'0 0.0
2017-Sep-16 04:31N 37°55' E 023°42'0 0.0
2017-Sep-16 04:01N 37°55' E 023°42'0 0.0
2017-Sep-16 03:31N 37°55' E 023°42'0 0.0
2017-Sep-16 03:00N 37°55' E 023°42'0 0.0
2017-Sep-16 02:31N 37°55' E 023°42'0 0.0
2017-Sep-16 02:01N 37°55' E 023°42'0 0.0
2017-Sep-16 01:30N 37°55' E 023°42'0 0.0
2017-Sep-16 01:01N 37°55' E 023°42'0 0.0
2017-Sep-16 00:30N 37°55' E 023°42'0 0.0
2017-Sep-16 00:01N 37°55' E 023°42'0 0.0
2017-Sep-15 23:31N 37°55' E 023°42'0 0.0
2017-Sep-15 23:01N 37°55' E 023°42'0 0.0
2017-Sep-15 22:30N 37°55' E 023°42'0 0.0
2017-Sep-15 22:01N 37°55' E 023°42'0 0.0
2017-Sep-15 21:30N 37°55' E 023°42'0 0.0
2017-Sep-15 21:00N 37°55' E 023°42'0 0.0
2017-Sep-15 20:30N 37°55' E 023°42'0 0.0
2017-Sep-15 20:00N 37°55' E 023°42'0 0.0
2017-Sep-15 19:31N 37°55' E 023°42'0 0.0
2017-Sep-15 19:00N 37°55' E 023°42'0 0.0
2017-Sep-15 18:31N 37°55' E 023°42'0 0.0
2017-Sep-15 18:01N 37°55' E 023°42'0 0.0
2017-Sep-15 17:31N 37°55' E 023°42'0 0.0
2017-Sep-15 17:00N 37°55' E 023°42'0 0.0
2017-Sep-15 16:30N 37°55' E 023°42'0 0.0
2017-Sep-15 16:01N 37°55' E 023°42'0 0.0
2017-Sep-15 15:30N 37°55' E 023°42'0 0.0
2017-Sep-15 15:01N 37°55' E 023°42'0 0.0
2017-Sep-15 14:31N 37°55' E 023°42'0 0.0
2017-Sep-15 14:01N 37°55' E 023°42'0 0.0
2017-Sep-15 13:31N 37°55' E 023°42'0 0.0
2017-Sep-15 13:01N 37°55' E 023°42'0 0.0
2017-Sep-15 12:30N 37°55' E 023°42'0 0.0
2017-Sep-15 12:01N 37°55' E 023°42'0 0.0
2017-Sep-15 11:30N 37°55' E 023°42'0 0.0
2017-Sep-15 11:00N 37°55' E 023°42'0 0.0
2017-Sep-15 10:31N 37°55' E 023°42'0 0.0
2017-Sep-15 10:01N 37°55' E 023°42'0 0.0
2017-Sep-15 09:30N 37°55' E 023°42'0 0.0
2017-Sep-15 09:01N 37°55' E 023°42'0 0.0
2017-Sep-15 08:31N 37°55' E 023°42'0 0.0
2017-Sep-15 08:01N 37°55' E 023°42'0 0.0
2017-Sep-15 07:31N 37°55' E 023°42'0 0.0
2017-Sep-15 07:00N 37°55' E 023°42'0 0.0
2017-Sep-15 06:31N 37°55' E 023°42'0 0.0
2017-Sep-15 06:00N 37°55' E 023°42'0 0.0
2017-Sep-15 05:31N 37°55' E 023°42'0 0.0
2017-Sep-15 05:01N 37°55' E 023°42'0 0.0
2017-Sep-15 04:30N 37°55' E 023°42'0 0.0
2017-Sep-15 04:00N 37°55' E 023°42'0 0.0
2017-Sep-15 03:31N 37°55' E 023°42'0 0.0
2017-Sep-15 03:01N 37°55' E 023°42'0 0.0
2017-Sep-15 02:31N 37°55' E 023°42'0 0.0
2017-Sep-15 02:01N 37°55' E 023°42'0 0.0
2017-Sep-15 01:31N 37°55' E 023°42'0 0.0
2017-Sep-15 01:01N 37°55' E 023°42'0 0.0
2017-Sep-15 00:30N 37°55' E 023°42'0 0.0
2017-Sep-15 00:00N 37°55' E 023°42'0 0.0
2017-Sep-14 23:31N 37°55' E 023°42'0 0.0
2017-Sep-14 23:00N 37°55' E 023°42'0 0.0
2017-Sep-14 22:31N 37°55' E 023°42'0 0.0
2017-Sep-14 22:01N 37°55' E 023°42'0 0.0
2017-Sep-14 21:30N 37°55' E 023°42'0 0.0
2017-Sep-14 21:00N 37°55' E 023°42'0 0.0
2017-Sep-14 20:30N 37°55' E 023°42'0 0.0
2017-Sep-14 20:01N 37°55' E 023°42'0 0.0
2017-Sep-14 19:31N 37°55' E 023°42'0 0.0
2017-Sep-14 19:01N 37°55' E 023°42'0 0.0
2017-Sep-14 18:31N 37°55' E 023°42'0 0.0
2017-Sep-14 18:01N 37°55' E 023°42'  
Track history (hours):
 
Tides and Currents Weather Stations Pressure Air Temp Water Temp Dewpoint Dewpoint Depression Visibility Wind Speed Wind Dir Waves Ship Positions

Daloli

Last reported at 2017-Sep-24 17:30 UTC. Time now 2017-Sep-24 17:41 UTC.
Position N 37°55' E 023°42'.

Type: Pleasure craft. MMSI: 239982500.

Date/timePositionNaut miles runAvg speedWind from/ knotsBaromVisibWave heightAir tempDewpointWater temp
2017-Sep-24 17:30N 37°55' E 023°42'0 0.0
2017-Sep-24 17:00N 37°55' E 023°42'0 0.0
2017-Sep-24 16:30N 37°55' E 023°42'0 0.0
2017-Sep-24 16:00N 37°55' E 023°42'0 0.0
2017-Sep-24 15:30N 37°55' E 023°42'0 0.0
2017-Sep-24 15:00N 37°55' E 023°42'0 0.0
2017-Sep-24 14:30N 37°55' E 023°42'0 0.0
2017-Sep-24 14:00N 37°55' E 023°42'0 0.0
2017-Sep-24 13:30N 37°55' E 023°42'0 0.0
2017-Sep-24 13:00N 37°55' E 023°42'0 0.0
2017-Sep-24 12:30N 37°55' E 023°42'0 0.0
2017-Sep-24 12:00N 37°55' E 023°42'0 0.0
2017-Sep-24 11:30N 37°55' E 023°42'0 0.0
2017-Sep-24 11:00N 37°55' E 023°42'0 0.0
2017-Sep-24 10:30N 37°55' E 023°42'0 0.0
2017-Sep-24 10:00N 37°55' E 023°42'0 0.0
2017-Sep-24 09:30N 37°55' E 023°42'0 0.0
2017-Sep-24 09:00N 37°55' E 023°42'0 0.0
2017-Sep-24 08:30N 37°55' E 023°42'0 0.0
2017-Sep-24 08:00N 37°55' E 023°42'0 0.0
2017-Sep-24 07:30N 37°55' E 023°42'0 0.0
2017-Sep-24 07:00N 37°55' E 023°42'0 0.0
2017-Sep-24 06:30N 37°55' E 023°42'0 0.0
2017-Sep-24 06:00N 37°55' E 023°42'0 0.0
2017-Sep-24 05:30N 37°55' E 023°42'0 0.0
2017-Sep-24 05:00N 37°55' E 023°42'0 0.0
2017-Sep-24 04:30N 37°55' E 023°42'0 0.0
2017-Sep-24 04:00N 37°55' E 023°42'0 0.0
2017-Sep-24 03:30N 37°55' E 023°42'0 0.0
2017-Sep-24 03:00N 37°55' E 023°42'0 0.0
2017-Sep-24 02:30N 37°55' E 023°42'0 0.0
2017-Sep-24 02:00N 37°55' E 023°42'0 0.0
2017-Sep-24 01:30N 37°55' E 023°42'0 0.0
2017-Sep-24 01:00N 37°55' E 023°42'0 0.0
2017-Sep-24 00:30N 37°55' E 023°42'0 0.0
2017-Sep-24 00:00N 37°55' E 023°42'0 0.0
2017-Sep-23 23:30N 37°55' E 023°42'0 0.0
2017-Sep-23 23:00N 37°55' E 023°42'0 0.0
2017-Sep-23 22:30N 37°55' E 023°42'0 0.0
2017-Sep-23 22:00N 37°55' E 023°42'0 0.0
2017-Sep-23 21:30N 37°55' E 023°42'0 0.0
2017-Sep-23 21:00N 37°55' E 023°42'0 0.0
2017-Sep-23 20:30N 37°55' E 023°42'0 0.0
2017-Sep-23 20:00N 37°55' E 023°42'30 0.6
2017-Sep-21 16:15N 37°38' E 023°10'0 0.0
2017-Sep-21 15:52N 37°38' E 023°10'0 0.0
2017-Sep-21 15:30N 37°38' E 023°10'0 0.0
2017-Sep-21 15:00N 37°38' E 023°10'0 0.0
2017-Sep-21 14:28N 37°38' E 023°10'0 0.0
2017-Sep-21 10:24N 37°38' E 023°10'1 2.5
2017-Sep-21 10:00N 37°38' E 023°11'18 1.0
2017-Sep-20 15:33N 37°32' E 023°32'122.7
2017-Sep-20 15:30N 37°31' E 023°33'918.6
2017-Sep-20 15:00N 37°23' E 023°26'7 0.2
2017-Sep-19 07:27N 37°27' E 023°33'8 0.2
2017-Sep-17 10:47N 37°31' E 023°25'721.6
2017-Sep-17 10:26N 37°35' E 023°33'1023.4
2017-Sep-17 10:00N 37°36' E 023°46'8 0.4
2017-Sep-16 14:18N 37°42' E 023°53'722.8
2017-Sep-16 14:01N 37°45' E 023°45'1020.1
2017-Sep-16 13:30N 37°55' E 023°42'0 0.6
2017-Sep-16 13:01N 37°55' E 023°42'0 0.0
2017-Sep-16 12:31N 37°55' E 023°42'0 0.0
2017-Sep-16 12:01N 37°55' E 023°42'0 0.0
2017-Sep-16 11:30N 37°55' E 023°42'0 0.0
2017-Sep-16 11:01N 37°55' E 023°42'0 0.0
2017-Sep-16 10:30N 37°55' E 023°42'0 0.0
2017-Sep-16 10:00N 37°55' E 023°42'0 0.0
2017-Sep-16 09:31N 37°55' E 023°42'0 0.0
2017-Sep-16 09:00N 37°55' E 023°42'0 0.0
2017-Sep-16 08:31N 37°55' E 023°42'0 0.0
2017-Sep-16 08:01N 37°55' E 023°42'0 0.0
2017-Sep-16 07:30N 37°55' E 023°42'0 0.0
2017-Sep-16 07:00N 37°55' E 023°42'0 0.0
2017-Sep-16 06:31N 37°55' E 023°42'0 0.0
2017-Sep-16 06:01N 37°55' E 023°42'0 0.0
2017-Sep-16 05:30N 37°55' E 023°42'0 0.0
2017-Sep-16 05:01N 37°55' E 023°42'0 0.0
2017-Sep-16 04:31N 37°55' E 023°42'0 0.0
2017-Sep-16 04:01N 37°55' E 023°42'0 0.0
2017-Sep-16 03:31N 37°55' E 023°42'0 0.0
2017-Sep-16 03:00N 37°55' E 023°42'0 0.0
2017-Sep-16 02:31N 37°55' E 023°42'0 0.0
2017-Sep-16 02:01N 37°55' E 023°42'0 0.0
2017-Sep-16 01:30N 37°55' E 023°42'0 0.0
2017-Sep-16 01:01N 37°55' E 023°42'0 0.0
2017-Sep-16 00:30N 37°55' E 023°42'0 0.0
2017-Sep-16 00:01N 37°55' E 023°42'0 0.0
2017-Sep-15 23:31N 37°55' E 023°42'0 0.0
2017-Sep-15 23:01N 37°55' E 023°42'0 0.0
2017-Sep-15 22:30N 37°55' E 023°42'0 0.0
2017-Sep-15 22:01N 37°55' E 023°42'0 0.0
2017-Sep-15 21:30N 37°55' E 023°42'0 0.0
2017-Sep-15 21:00N 37°55' E 023°42'0 0.0
2017-Sep-15 20:30N 37°55' E 023°42'0 0.0
2017-Sep-15 20:00N 37°55' E 023°42'0 0.0
2017-Sep-15 19:31N 37°55' E 023°42'0 0.0
2017-Sep-15 19:00N 37°55' E 023°42'0 0.0
2017-Sep-15 18:31N 37°55' E 023°42'0 0.0
2017-Sep-15 18:01N 37°55' E 023°42'0 0.0
2017-Sep-15 17:31N 37°55' E 023°42'0 0.0
2017-Sep-15 17:00N 37°55' E 023°42'0 0.0
2017-Sep-15 16:30N 37°55' E 023°42'0 0.0
2017-Sep-15 16:01N 37°55' E 023°42'0 0.0
2017-Sep-15 15:30N 37°55' E 023°42'0 0.0
2017-Sep-15 15:01N 37°55' E 023°42'0 0.0
2017-Sep-15 14:31N 37°55' E 023°42'0 0.0
2017-Sep-15 14:01N 37°55' E 023°42'0 0.0
2017-Sep-15 13:31N 37°55' E 023°42'0 0.0
2017-Sep-15 13:01N 37°55' E 023°42'0 0.0
2017-Sep-15 12:30N 37°55' E 023°42'0 0.0
2017-Sep-15 12:01N 37°55' E 023°42'0 0.0
2017-Sep-15 11:30N 37°55' E 023°42'0 0.0
2017-Sep-15 11:00N 37°55' E 023°42'0 0.0
2017-Sep-15 10:31N 37°55' E 023°42'0 0.0
2017-Sep-15 10:01N 37°55' E 023°42'0 0.0
2017-Sep-15 09:30N 37°55' E 023°42'0 0.0
2017-Sep-15 09:01N 37°55' E 023°42'0 0.0
2017-Sep-15 08:31N 37°55' E 023°42'0 0.0
2017-Sep-15 08:01N 37°55' E 023°42'0 0.0
2017-Sep-15 07:31N 37°55' E 023°42'0 0.0
2017-Sep-15 07:00N 37°55' E 023°42'0 0.0
2017-Sep-15 06:31N 37°55' E 023°42'0 0.0
2017-Sep-15 06:00N 37°55' E 023°42'0 0.0
2017-Sep-15 05:31N 37°55' E 023°42'0 0.0
2017-Sep-15 05:01N 37°55' E 023°42'0 0.0
2017-Sep-15 04:30N 37°55' E 023°42'0 0.0
2017-Sep-15 04:00N 37°55' E 023°42'0 0.0
2017-Sep-15 03:31N 37°55' E 023°42'0 0.0
2017-Sep-15 03:01N 37°55' E 023°42'0 0.0
2017-Sep-15 02:31N 37°55' E 023°42'0 0.0
2017-Sep-15 02:01N 37°55' E 023°42'0 0.0
2017-Sep-15 01:31N 37°55' E 023°42'0 0.0
2017-Sep-15 01:01N 37°55' E 023°42'0 0.0
2017-Sep-15 00:30N 37°55' E 023°42'0 0.0
2017-Sep-15 00:00N 37°55' E 023°42'0 0.0
2017-Sep-14 23:31N 37°55' E 023°42'0 0.0
2017-Sep-14 23:00N 37°55' E 023°42'0 0.0
2017-Sep-14 22:31N 37°55' E 023°42'0 0.0
2017-Sep-14 22:01N 37°55' E 023°42'0 0.0
2017-Sep-14 21:30N 37°55' E 023°42'0 0.0
2017-Sep-14 21:00N 37°55' E 023°42'0 0.0
2017-Sep-14 20:30N 37°55' E 023°42'0 0.0
2017-Sep-14 20:01N 37°55' E 023°42'0 0.0
2017-Sep-14 19:31N 37°55' E 023°42'0 0.0
2017-Sep-14 19:01N 37°55' E 023°42'0 0.0
2017-Sep-14 18:31N 37°55' E 023°42'0 0.0
2017-Sep-14 18:01N 37°55' E 023°42'  

Dump ship's entire track history